createdAt,value
2023-11-09T00:00:04.754Z,11.45
2023-11-09T00:02:32.796Z,10.88
2023-11-09T00:05:01.004Z,10.60
2023-11-09T00:07:29.815Z,10.55
2023-11-09T00:09:59.016Z,10.48
2023-11-09T00:12:27.082Z,10.57
2023-11-09T00:14:56.504Z,10.45
2023-11-09T00:17:24.652Z,9.45
2023-11-09T00:19:52.813Z,10.07
2023-11-09T00:22:21.814Z,9.98
2023-11-09T00:24:49.913Z,10.27
2023-11-09T00:27:20.771Z,10.13
2023-11-09T00:29:48.906Z,10.75
2023-11-09T00:32:18.382Z,9.70
2023-11-09T00:34:46.615Z,10.00
2023-11-09T00:37:14.877Z,9.10
2023-11-09T00:39:42.927Z,9.20
2023-11-09T00:42:11.016Z,10.00
2023-11-09T00:44:39.053Z,9.30
2023-11-09T00:47:07.601Z,9.68
2023-11-09T00:49:37.034Z,9.88
2023-11-09T00:52:05.663Z,9.18
2023-11-09T00:54:33.762Z,9.35
2023-11-09T00:57:01.784Z,8.95
2023-11-09T00:59:29.876Z,9.07
2023-11-09T01:01:57.918Z,9.02
2023-11-09T01:04:26.282Z,9.05
2023-11-09T01:06:56.041Z,9.15
2023-11-09T01:09:25.089Z,8.15
2023-11-09T01:11:53.151Z,8.55
2023-11-09T01:14:21.640Z,8.57
2023-11-09T01:16:50.349Z,8.80
2023-11-09T01:19:18.682Z,8.27
2023-11-09T01:21:46.974Z,8.23
2023-11-09T01:24:18.778Z,8.00
2023-11-09T01:26:46.889Z,8.10
2023-11-09T01:29:14.961Z,8.20
2023-11-09T01:31:44.203Z,8.20
2023-11-09T01:34:15.318Z,8.55
2023-11-09T01:36:43.939Z,7.55
2023-11-09T01:39:11.797Z,8.18
2023-11-09T01:41:43.613Z,7.78
2023-11-09T01:44:12.056Z,8.07
2023-11-09T01:46:42.197Z,7.68
2023-11-09T01:49:10.759Z,8.20
2023-11-09T01:51:38.902Z,7.57
2023-11-09T01:54:07.260Z,7.28
2023-11-09T01:56:36.078Z,7.35
2023-11-09T01:59:05.808Z,7.38
2023-11-09T02:01:34.671Z,7.10
2023-11-09T02:04:03.096Z,7.20
2023-11-09T02:06:31.548Z,7.40
2023-11-09T02:08:59.720Z,7.40
2023-11-09T02:11:27.793Z,7.40
2023-11-09T02:13:55.886Z,7.32
2023-11-09T02:16:25.379Z,7.03
2023-11-09T02:18:53.598Z,6.53
2023-11-09T02:21:27.981Z,7.22
2023-11-09T02:23:56.141Z,6.53
2023-11-09T02:26:25.593Z,6.60
2023-11-09T02:28:54.688Z,7.00
2023-11-09T02:31:22.767Z,6.85
2023-11-09T02:33:50.886Z,6.55
2023-11-09T02:36:19.976Z,6.40
2023-11-09T02:38:48.041Z,6.38
2023-11-09T02:41:16.146Z,6.53
2023-11-09T02:43:45.635Z,6.20
2023-11-09T02:46:13.820Z,6.57
2023-11-09T02:48:42.340Z,6.63
2023-11-09T02:51:10.670Z,6.15
2023-11-09T02:53:40.190Z,6.22
2023-11-09T02:56:08.767Z,6.10
2023-11-09T02:58:37.003Z,5.80
2023-11-09T03:01:07.281Z,5.97
2023-11-09T03:03:35.633Z,5.80
2023-11-09T03:06:03.722Z,5.90
2023-11-09T03:08:32.215Z,5.82
2023-11-09T03:11:00.248Z,6.03
2023-11-09T03:13:28.728Z,5.88
2023-11-09T03:15:57.085Z,5.50
2023-11-09T03:18:26.879Z,5.95
2023-11-09T03:20:55.750Z,5.50
2023-11-09T03:23:24.838Z,5.38
2023-11-09T03:25:52.997Z,5.40
2023-11-09T03:28:22.313Z,5.63
2023-11-09T03:30:50.444Z,5.40
2023-11-09T03:33:18.547Z,5.85
2023-11-09T03:35:48.044Z,5.40
2023-11-09T03:38:16.087Z,5.28
2023-11-09T03:40:44.170Z,5.30
2023-11-09T03:43:12.282Z,5.20
2023-11-09T03:45:40.521Z,5.53
2023-11-09T03:48:08.632Z,5.22
2023-11-09T03:50:36.786Z,5.45
2023-11-09T03:53:06.200Z,5.25
2023-11-09T03:55:34.493Z,5.38
2023-11-09T03:58:02.633Z,4.97
2023-11-09T04:00:30.708Z,5.03
2023-11-09T04:02:58.907Z,5.28
2023-11-09T04:05:26.942Z,5.10
2023-11-09T04:07:55.063Z,4.97
2023-11-09T04:10:24.653Z,4.60
2023-11-09T04:12:52.712Z,4.80
2023-11-09T04:15:20.967Z,4.63
2023-11-09T04:17:49.040Z,4.70
2023-11-09T04:20:17.969Z,4.75
2023-11-09T04:22:46.082Z,4.95
2023-11-09T04:25:14.303Z,4.90
2023-11-09T04:27:44.359Z,4.50
2023-11-09T04:30:17.222Z,4.65
2023-11-09T04:32:45.505Z,4.40
2023-11-09T04:35:15.963Z,4.50
2023-11-09T04:37:45.818Z,4.50
2023-11-09T04:40:17.003Z,4.40
2023-11-09T04:42:48.277Z,4.40
2023-11-09T04:45:17.873Z,4.70
2023-11-09T04:47:49.056Z,4.68
2023-11-09T04:50:19.184Z,4.40
2023-11-09T04:52:53.478Z,4.28
2023-11-09T04:55:33.330Z,4.30
2023-11-09T04:58:21.668Z,4.63
2023-11-09T05:01:07.118Z,4.20
2023-11-09T05:03:52.751Z,4.30
2023-11-09T05:06:38.425Z,4.22
2023-11-09T05:09:07.593Z,4.18
2023-11-09T05:11:35.630Z,4.45
2023-11-09T05:14:05.135Z,4.10
2023-11-09T05:16:33.212Z,4.05
2023-11-09T05:19:01.327Z,4.25
2023-11-09T05:21:29.379Z,4.35
2023-11-09T05:23:57.413Z,4.18
2023-11-09T05:26:26.982Z,4.30
2023-11-09T05:28:56.252Z,3.72
2023-11-09T05:31:26.016Z,4.00
2023-11-09T05:33:55.159Z,5.40
2023-11-09T05:36:23.324Z,5.32
2023-11-09T05:38:51.340Z,5.75
2023-11-09T05:41:19.370Z,5.03
2023-11-09T05:43:47.435Z,5.30
2023-11-09T05:46:15.503Z,5.50
2023-11-09T05:48:45.040Z,5.95
2023-11-09T05:51:13.122Z,6.32
2023-11-09T05:53:41.160Z,6.13
2023-11-09T05:56:09.869Z,6.30
2023-11-09T05:58:38.424Z,5.82
2023-11-09T06:01:06.745Z,6.50
2023-11-09T06:03:34.963Z,6.30
2023-11-09T06:06:04.698Z,6.07
2023-11-09T06:08:32.804Z,6.68
2023-11-09T06:11:00.814Z,6.32
2023-11-09T06:13:28.885Z,8.00
2023-11-09T06:15:58.738Z,9.35
2023-11-09T06:18:27.710Z,10.35
2023-11-09T06:20:56.973Z,12.65
2023-11-09T06:23:26.381Z,13.07
2023-11-09T06:25:54.538Z,11.85
2023-11-09T06:28:23.339Z,13.27
2023-11-09T06:30:51.948Z,12.77
2023-11-09T06:33:20.036Z,12.35
2023-11-09T06:35:49.251Z,14.25
2023-11-09T06:38:20.383Z,14.48
2023-11-09T06:40:49.934Z,14.90
2023-11-09T06:43:18.737Z,14.70
2023-11-09T06:45:47.667Z,14.63
2023-11-09T06:48:16.330Z,14.27
2023-11-09T06:50:44.518Z,14.40
2023-11-09T06:53:18.994Z,14.57
2023-11-09T06:55:47.177Z,15.55
2023-11-09T06:58:16.652Z,14.93
2023-11-09T07:00:44.643Z,15.63
2023-11-09T07:03:12.680Z,14.98
2023-11-09T07:05:41.182Z,16.45
2023-11-09T07:08:09.650Z,16.02
2023-11-09T07:10:38.508Z,16.30
2023-11-09T07:13:06.909Z,14.77
2023-11-09T07:15:36.503Z,15.43
2023-11-09T07:18:05.694Z,16.63
2023-11-09T07:20:34.586Z,15.98
2023-11-09T07:23:08.289Z,15.02
2023-11-09T07:25:38.152Z,16.17
2023-11-09T07:28:09.678Z,17.15
2023-11-09T07:30:39.463Z,16.55
2023-11-09T07:33:07.567Z,15.95
2023-11-09T07:35:36.981Z,16.60
2023-11-09T07:38:05.483Z,17.08
2023-11-09T07:40:34.690Z,16.05
2023-11-09T07:43:02.858Z,15.88
2023-11-09T07:45:30.921Z,15.85
2023-11-09T07:48:00.453Z,16.80
2023-11-09T07:50:29.139Z,16.35
2023-11-09T07:52:57.204Z,16.10
2023-11-09T07:55:25.314Z,15.60
2023-11-09T07:57:54.144Z,16.23
2023-11-09T08:00:24.393Z,16.35
2023-11-09T08:02:52.581Z,17.08
2023-11-09T08:05:23.815Z,16.17
2023-11-09T08:07:53.375Z,15.25
2023-11-09T08:10:21.544Z,17.38
2023-11-09T08:12:49.886Z,15.95
2023-11-09T08:15:19.701Z,16.35
2023-11-09T08:17:48.747Z,15.98
2023-11-09T08:20:17.425Z,16.63
2023-11-09T08:22:47.584Z,15.90
2023-11-09T08:25:16.356Z,15.88
2023-11-09T08:27:44.521Z,15.25
2023-11-09T08:30:13.254Z,16.42
2023-11-09T08:32:43.052Z,15.23
2023-11-09T08:35:12.154Z,16.30
2023-11-09T08:37:39.787Z,14.85
2023-11-09T08:40:17.968Z,15.55
2023-11-09T08:42:47.776Z,15.95
2023-11-09T08:45:18.710Z,14.57
2023-11-09T08:47:47.014Z,15.88
2023-11-09T08:50:15.140Z,15.38
2023-11-09T08:52:43.360Z,15.20
2023-11-09T08:55:13.332Z,15.32
2023-11-09T08:57:41.831Z,15.13
2023-11-09T09:00:13.145Z,15.40
2023-11-09T09:02:46.420Z,15.32
2023-11-09T09:05:16.533Z,15.60
2023-11-09T09:07:44.992Z,13.85
2023-11-09T09:10:17.235Z,14.82
2023-11-09T09:12:47.004Z,14.77
2023-11-09T09:15:17.257Z,15.32
2023-11-09T09:17:46.752Z,15.05
2023-11-09T09:20:16.849Z,14.43
2023-11-09T09:22:46.310Z,14.43
2023-11-09T09:25:17.810Z,13.55
2023-11-09T09:27:47.413Z,13.90
2023-11-09T09:30:18.796Z,15.07
2023-11-09T09:32:48.000Z,14.80
2023-11-09T09:35:16.765Z,13.65
2023-11-09T09:37:47.077Z,13.95
2023-11-09T09:40:20.871Z,14.13
2023-11-09T09:42:51.285Z,14.20
2023-11-09T09:45:20.586Z,13.68
2023-11-09T09:47:49.843Z,13.55
2023-11-09T09:50:18.537Z,13.45
2023-11-09T09:52:48.389Z,13.60
2023-11-09T09:55:19.527Z,12.93
2023-11-09T09:57:48.505Z,13.65
2023-11-09T10:00:24.647Z,13.48
2023-11-09T10:02:53.415Z,12.90
2023-11-09T10:05:22.150Z,12.63
2023-11-09T10:08:04.029Z,12.57
2023-11-09T10:10:36.305Z,13.05
2023-11-09T10:13:07.546Z,12.32
2023-11-09T10:15:35.939Z,12.80
2023-11-09T10:18:04.154Z,12.65
2023-11-09T10:20:33.334Z,12.73
2023-11-09T10:23:03.825Z,12.10
2023-11-09T10:25:37.529Z,11.95
2023-11-09T10:28:09.276Z,11.65
2023-11-09T10:30:38.824Z,12.27
2023-11-09T10:33:10.213Z,11.93
2023-11-09T10:35:38.643Z,11.38
2023-11-09T10:38:09.438Z,11.38
2023-11-09T10:40:44.525Z,11.70
2023-11-09T10:43:34.682Z,11.75
2023-11-09T10:46:05.849Z,11.00
2023-11-09T10:48:36.367Z,11.02
2023-11-09T10:51:04.718Z,11.35
2023-11-09T10:53:33.800Z,10.57
2023-11-09T10:56:04.998Z,11.30
2023-11-09T10:58:34.667Z,11.38
2023-11-09T11:01:07.440Z,10.20
2023-11-09T11:03:37.565Z,11.00
2023-11-09T11:06:06.630Z,10.80
2023-11-09T11:08:37.412Z,10.65
2023-11-09T11:11:07.228Z,10.55
2023-11-09T11:13:36.860Z,9.82
2023-11-09T11:16:33.099Z,10.20
2023-11-09T11:19:16.647Z,10.80
2023-11-09T11:21:56.691Z,10.18
2023-11-09T11:24:43.795Z,9.80
2023-11-09T11:27:19.442Z,9.70
2023-11-09T11:29:50.286Z,9.52
2023-11-09T11:32:23.130Z,9.60
2023-11-09T11:34:55.964Z,9.48
2023-11-09T11:37:26.083Z,9.13
2023-11-09T11:39:55.218Z,9.57
2023-11-09T11:42:26.604Z,9.68
2023-11-09T11:44:58.313Z,9.00
2023-11-09T11:47:30.130Z,8.98
2023-11-09T11:50:00.629Z,9.20
2023-11-09T11:52:31.393Z,8.90
2023-11-09T11:55:01.743Z,8.60
2023-11-09T11:57:33.164Z,8.65
2023-11-09T12:00:10.047Z,8.80
2023-11-09T12:02:38.924Z,8.98
2023-11-09T12:05:08.616Z,8.35
2023-11-09T12:07:36.935Z,8.43
2023-11-09T12:10:07.252Z,8.05
2023-11-09T12:12:37.589Z,8.45
2023-11-09T12:15:07.652Z,8.13
2023-11-09T12:17:35.839Z,7.88
2023-11-09T12:20:12.269Z,7.90
2023-11-09T12:22:40.624Z,8.43
2023-11-09T12:25:13.200Z,7.68
2023-11-09T12:27:43.181Z,7.70
2023-11-09T12:30:12.421Z,8.05
2023-11-09T12:32:42.017Z,7.78
2023-11-09T12:35:15.876Z,7.50
2023-11-09T12:37:44.133Z,7.35
2023-11-09T12:40:13.176Z,7.60
2023-11-09T12:42:43.794Z,7.28
2023-11-09T12:45:12.483Z,7.05
2023-11-09T12:47:41.416Z,7.47
2023-11-09T12:50:17.839Z,7.47
2023-11-09T12:52:46.284Z,7.05
2023-11-09T12:55:15.642Z,6.80
2023-11-09T12:57:46.212Z,6.80
2023-11-09T13:00:24.903Z,7.07
2023-11-09T13:02:57.903Z,6.70
2023-11-09T13:05:33.129Z,7.28
2023-11-09T13:08:09.620Z,7.28
2023-11-09T13:10:40.228Z,6.88
2023-11-09T13:13:22.701Z,6.65
2023-11-09T13:15:50.650Z,6.72
2023-11-09T13:18:27.479Z,6.38
2023-11-09T13:20:56.288Z,6.53
2023-11-09T13:23:33.791Z,6.30
2023-11-09T13:26:03.726Z,6.57
2023-11-09T13:28:33.203Z,6.53
2023-11-09T13:31:07.279Z,6.45
2023-11-09T13:33:38.762Z,6.13
2023-11-09T13:36:10.693Z,6.00
2023-11-09T13:38:47.031Z,6.50
2023-11-09T13:41:18.407Z,6.05
2023-11-09T13:44:00.608Z,6.13
2023-11-09T13:46:29.249Z,6.07
2023-11-09T13:49:07.143Z,6.10
2023-11-09T13:51:35.297Z,5.95
2023-11-09T13:54:24.781Z,6.20
2023-11-09T13:57:10.385Z,5.65
2023-11-09T13:59:43.857Z,5.63
2023-11-09T14:02:17.507Z,6.00
2023-11-09T14:04:47.956Z,5.80
2023-11-09T14:07:17.817Z,5.20
2023-11-09T14:09:45.931Z,5.78
2023-11-09T14:12:34.586Z,5.70
2023-11-09T14:15:15.017Z,5.32
2023-11-09T14:17:45.741Z,5.55
2023-11-09T14:20:21.750Z,5.28
2023-11-09T14:22:49.969Z,5.40
2023-11-09T14:25:22.958Z,5.50
2023-11-09T14:27:51.811Z,5.18
2023-11-09T14:30:29.747Z,5.10
2023-11-09T14:33:01.931Z,4.82
2023-11-09T14:35:31.628Z,4.90
2023-11-09T14:38:02.434Z,5.22
2023-11-09T14:40:31.287Z,5.07
2023-11-09T14:43:07.578Z,5.00
2023-11-09T14:45:42.946Z,4.82
2023-11-09T14:48:12.521Z,4.68
2023-11-09T14:50:41.356Z,5.45
2023-11-09T14:53:22.785Z,4.57
2023-11-09T14:55:58.408Z,4.97
2023-11-09T14:58:32.002Z,4.50
2023-11-09T15:01:03.741Z,5.00
2023-11-09T15:03:32.968Z,4.70
2023-11-09T15:06:10.419Z,4.75
2023-11-09T15:08:38.961Z,4.57
2023-11-09T15:11:11.983Z,4.60
2023-11-09T15:13:40.429Z,4.60
2023-11-09T15:16:10.317Z,4.65
2023-11-09T15:18:38.704Z,4.60
2023-11-09T15:21:11.197Z,4.80
2023-11-09T15:23:39.418Z,4.43
2023-11-09T15:26:08.213Z,4.63
2023-11-09T15:28:36.406Z,4.40
2023-11-09T15:31:06.650Z,4.30
2023-11-09T15:33:36.432Z,4.40
2023-11-09T15:36:05.254Z,4.40
2023-11-09T15:38:33.685Z,4.80
2023-11-09T15:41:18.360Z,4.18
2023-11-09T15:43:51.267Z,4.03
2023-11-09T15:46:19.428Z,4.18
2023-11-09T15:48:49.427Z,4.15
2023-11-09T15:51:18.618Z,3.90
2023-11-09T15:53:46.843Z,4.13
2023-11-09T15:56:16.697Z,3.97
2023-11-09T15:58:49.482Z,4.22
2023-11-09T16:01:20.641Z,4.00
2023-11-09T16:03:52.851Z,3.80
2023-11-09T16:06:21.002Z,4.00
2023-11-09T16:08:51.392Z,4.03
2023-11-09T16:11:19.546Z,4.10
2023-11-09T16:13:47.679Z,4.10
2023-11-09T16:16:16.847Z,3.92
2023-11-09T16:18:45.031Z,3.95
2023-11-09T16:21:14.641Z,3.60
2023-11-09T16:23:42.942Z,3.85
2023-11-09T16:26:12.605Z,3.75
2023-11-09T16:28:47.160Z,3.47
2023-11-09T16:31:15.299Z,3.90
2023-11-09T16:33:44.109Z,3.60
2023-11-09T16:36:14.925Z,3.90
2023-11-09T16:38:44.585Z,3.72
2023-11-09T16:41:12.687Z,3.70
2023-11-09T16:43:40.794Z,3.50
2023-11-09T16:46:10.677Z,3.60
2023-11-09T16:48:40.231Z,3.50
2023-11-09T16:51:11.374Z,3.63
2023-11-09T16:53:39.768Z,3.70
2023-11-09T16:56:10.214Z,3.85
2023-11-09T16:58:38.414Z,3.55
2023-11-09T17:01:08.747Z,3.50
2023-11-09T17:03:37.077Z,3.67
2023-11-09T17:06:07.502Z,3.60
2023-11-09T17:08:36.339Z,3.45
2023-11-09T17:11:04.605Z,3.47
2023-11-09T17:13:34.978Z,3.50
2023-11-09T17:16:03.419Z,3.28
2023-11-09T17:18:32.058Z,3.20
2023-11-09T17:21:02.614Z,3.10
2023-11-09T17:23:31.781Z,3.25
2023-11-09T17:26:01.447Z,3.40
2023-11-09T17:28:32.268Z,2.80
2023-11-09T17:31:01.858Z,3.15
2023-11-09T17:33:29.991Z,3.22
2023-11-09T17:35:58.108Z,3.22
2023-11-09T17:38:27.251Z,2.95
2023-11-09T17:40:55.563Z,3.00
2023-11-09T17:43:23.779Z,2.80
2023-11-09T17:45:51.943Z,3.22
2023-11-09T17:48:21.449Z,2.97
2023-11-09T17:50:49.504Z,2.90
2023-11-09T17:53:21.282Z,3.15
2023-11-09T17:55:49.663Z,3.28
2023-11-09T17:58:18.200Z,2.95
2023-11-09T18:00:46.412Z,3.08
2023-11-09T18:03:16.297Z,3.08
2023-11-09T18:05:45.895Z,2.95
2023-11-09T18:08:14.523Z,3.00
2023-11-09T18:10:43.073Z,2.92
2023-11-09T18:13:11.255Z,2.67
2023-11-09T18:15:41.216Z,3.17
2023-11-09T18:18:09.491Z,3.17
2023-11-09T18:20:37.832Z,2.92
2023-11-09T18:23:07.734Z,2.90
2023-11-09T18:25:36.107Z,2.70
2023-11-09T18:28:04.661Z,2.75
2023-11-09T18:30:32.699Z,2.80
2023-11-09T18:33:01.786Z,2.60
2023-11-09T18:35:29.964Z,2.88
2023-11-09T18:37:58.200Z,2.80
2023-11-09T18:40:29.389Z,2.83
2023-11-09T18:42:57.512Z,3.22
2023-11-09T18:45:26.004Z,2.78
2023-11-09T18:47:54.152Z,2.55
2023-11-09T18:52:53.770Z,2.50
2023-11-09T18:55:21.850Z,2.42
2023-11-09T18:57:51.311Z,2.50
2023-11-09T19:00:19.851Z,2.60
2023-11-09T19:05:19.075Z,2.67
2023-11-09T19:07:47.208Z,5.22
2023-11-09T19:10:15.533Z,6.93
2023-11-09T19:12:44.010Z,7.80
2023-11-09T19:15:13.662Z,7.03
2023-11-09T19:17:42.171Z,6.70
2023-11-09T19:20:12.490Z,6.80
2023-11-09T19:22:41.715Z,22.15
2023-11-09T19:25:11.165Z,15.98
2023-11-09T19:27:39.389Z,14.68
2023-11-09T19:30:09.607Z,13.63
2023-11-09T19:32:39.172Z,14.13
2023-11-09T19:35:08.311Z,13.38
2023-11-09T19:37:36.598Z,12.88
2023-11-09T19:40:05.744Z,13.10
2023-11-09T19:42:34.174Z,12.20
2023-11-09T19:45:02.377Z,12.38
2023-11-09T19:47:30.541Z,11.57
2023-11-09T19:50:00.056Z,11.60
2023-11-09T19:52:28.159Z,11.27
2023-11-09T19:54:56.211Z,11.07
2023-11-09T19:57:24.352Z,12.48
2023-11-09T19:59:52.465Z,8.88
2023-11-09T20:02:21.525Z,8.57
2023-11-09T20:04:49.596Z,9.18
2023-11-09T20:07:19.080Z,10.60
2023-11-09T20:09:47.182Z,10.50
2023-11-09T20:12:16.299Z,11.57
2023-11-09T20:14:44.483Z,10.52
2023-11-09T20:17:12.593Z,12.20
2023-11-09T20:19:40.657Z,13.48
2023-11-09T20:22:08.710Z,15.02
2023-11-09T20:24:38.158Z,14.00
2023-11-09T20:27:06.614Z,14.48
2023-11-09T20:29:35.947Z,13.75
2023-11-09T20:32:04.035Z,14.75
2023-11-09T20:34:32.813Z,13.48
2023-11-09T20:37:00.959Z,13.07
2023-11-09T20:39:29.121Z,13.25
2023-11-09T20:41:59.145Z,12.43
2023-11-09T20:44:27.392Z,12.30
2023-11-09T20:46:57.241Z,12.25
2023-11-09T20:49:25.400Z,13.50
2023-11-09T20:51:53.481Z,12.90
2023-11-09T20:54:21.585Z,12.75
2023-11-09T20:56:49.658Z,12.75
2023-11-09T20:59:19.142Z,11.85
2023-11-09T21:01:47.334Z,11.95
2023-11-09T21:04:15.641Z,11.55
2023-11-09T21:06:43.875Z,11.85
2023-11-09T21:09:12.014Z,11.52
2023-11-09T21:11:40.097Z,11.63
2023-11-09T21:14:11.763Z,11.68
2023-11-09T21:16:41.260Z,11.68
2023-11-09T21:19:09.298Z,11.00
2023-11-09T21:21:37.404Z,11.55
2023-11-09T21:24:07.394Z,10.77
2023-11-09T21:26:35.525Z,11.65
2023-11-09T21:29:03.692Z,10.75
2023-11-09T21:31:33.170Z,11.35
2023-11-09T21:34:02.846Z,10.70
2023-11-09T21:36:31.089Z,10.88
2023-11-09T21:39:00.553Z,10.90
2023-11-09T21:41:28.724Z,10.80
2023-11-09T21:43:58.773Z,10.38
2023-11-09T21:46:26.872Z,10.05
2023-11-09T21:48:56.819Z,10.35
2023-11-09T21:51:26.850Z,10.02
2023-11-09T21:53:54.928Z,9.85
2023-11-09T21:56:23.050Z,9.75
2023-11-09T21:58:51.337Z,9.73
2023-11-09T22:01:19.445Z,9.75
2023-11-09T22:03:47.680Z,9.70
2023-11-09T22:06:15.812Z,9.93
2023-11-09T22:08:45.764Z,9.60
2023-11-09T22:11:14.244Z,8.90
2023-11-09T22:13:42.388Z,9.65
2023-11-09T22:16:11.873Z,9.45
2023-11-09T22:18:40.723Z,9.20
2023-11-09T22:21:10.589Z,8.95
2023-11-09T22:23:39.286Z,9.27
2023-11-09T22:26:08.749Z,9.20
2023-11-09T22:28:36.799Z,8.80
2023-11-09T22:31:04.976Z,8.73
2023-11-09T22:33:33.287Z,8.68
2023-11-09T22:36:01.414Z,7.78
2023-11-09T22:38:29.486Z,8.90
2023-11-09T22:40:57.577Z,8.50
2023-11-09T22:43:27.011Z,8.32
2023-11-09T22:45:55.076Z,8.18
2023-11-09T22:48:23.164Z,8.10
2023-11-09T22:50:51.337Z,7.57
2023-11-09T22:53:19.468Z,7.88
2023-11-09T22:55:47.524Z,7.90
2023-11-09T22:58:15.591Z,8.25
2023-11-09T23:00:51.851Z,7.65
2023-11-09T23:03:21.718Z,7.30
2023-11-09T23:05:49.984Z,7.65
2023-11-09T23:08:18.097Z,7.55
2023-11-09T23:10:46.509Z,7.35
2023-11-09T23:13:14.667Z,7.28
2023-11-09T23:15:44.177Z,7.22
2023-11-09T23:18:16.244Z,6.88
2023-11-09T23:20:45.301Z,7.30
2023-11-09T23:23:14.675Z,6.60
2023-11-09T23:25:42.827Z,6.90
2023-11-09T23:28:12.723Z,6.90
2023-11-09T23:30:43.113Z,6.72
2023-11-09T23:33:12.758Z,6.47
2023-11-09T23:35:40.873Z,6.70
2023-11-09T23:38:08.921Z,6.25
2023-11-09T23:40:37.059Z,6.60
2023-11-09T23:43:05.120Z,6.90
2023-11-09T23:45:33.993Z,6.40
2023-11-09T23:48:12.141Z,6.20
2023-11-09T23:50:42.771Z,6.40
2023-11-09T23:53:10.873Z,6.10
2023-11-09T23:55:39.152Z,6.32
2023-11-09T23:58:09.067Z,6.07
